Terminal Aerodrome Forecast
Issued by NWS

Home | Current Version | Previous Version | Text Only | Print | Product List | Glossary On
Versions: 1 2 3 4 5 6 7 8 9 10 11 12
000
FTUS46 KEKA 290500
TAFUKI
TAF
KUKI 290539Z 2906/3006 13003KT P6SM FEW150 SCT200
     FM291100 VRB02KT P6SM SCT150 BKN200
     FM291400 14005KT P6SM VCSH SCT060 SCT150 BKN180=

USA.gov is the U.S. government's official web portal to all federal, state and local government web resources and services.